This is the latest recevied weather packets stored in our database for station/object KM4FZA. If no packets are shown the sender has not sent any weather packets the latest 10 day(s).
| Time | Temp. | Humidity | Pressure | Rain* | Wind** | Luminosity | Snow |
|---|---|---|---|---|---|---|---|
| 1777764321 | 13.33° C | 52% | 1015.3 hPa | 0 mm | - | - | - |
| 1777757727 | 14.44° C | 44% | 1014.7 hPa | 0 mm | - | - | - |
| 1777754124 | 14.44° C | 44% | 1014.7 hPa | 0 mm | - | - | - |
| 1777750521 | 13.89° C | 45% | 1015.7 hPa | 0 mm | - | - | - |
| 1777749373 | 13.89° C | 44% | 1015.7 hPa | 0 mm | - | - | - |
| 1777747550 | 14.44° C | 43% | 1015.7 hPa | 0 mm | - | - | - |
| 1777745116 | 14.44° C | 44% | 1015.8 hPa | 0 mm | - | - | - |
| 1777743927 | 13.89° C | 43% | 1016 hPa | 0 mm | - | - | - |
| 1777739730 | 13.89° C | 52% | 1016.7 hPa | 0 mm | - | - | - |
| 1777736127 | 13.33° C | 59% | 1017.6 hPa | 0.25 mm | - | - | - |
| 1777725919 | 12.22° C | 78% | 1015.7 hPa | 0 mm | - | - | - |
| 1777723517 | 11.67° C | 81% | 1016 hPa | 0 mm | - | - | - |
| 1777721142 | 11.67° C | 87% | 1015.5 hPa | 0 mm | - | - | - |
| 1777719972 | 11.11° C | 90% | 1015.5 hPa | 0 mm | - | - | - |
| 1777718724 | 11.11° C | 93% | 1015.5 hPa | 0 mm | - | - | - |
| 1777713935 | 11.11° C | 95% | 1016.3 hPa | 0 mm | - | - | - |
| 1777712726 | 11.11° C | 94% | 1016.2 hPa | 0 mm | - | - | - |
| 1777710351 | 11.67° C | 92% | 1015.6 hPa | 0 mm | - | - | - |
| 1777703124 | 10° C | 96% | 1015.1 hPa | 0 mm | - | - | - |
| 1777692340 | 10.56° C | 91% | 1016 hPa | 0 mm | - | - | - |
| 1777690518 | 11.11° C | 89% | 1016.2 hPa | 0 mm | - | - | - |
| 1777689317 | 10.56° C | 89% | 1016.4 hPa | 0 mm | - | - | - |
| 1777685132 | 11.67° C | 80% | 1016.4 hPa | 0 mm | - | - | - |
| 1777683925 | 12.22° C | 78% | 1016 hPa | 0 mm | - | - | - |
| 1777679768 | 13.89° C | 69% | 1015 hPa | 0 mm | - | - | - |
* Rain latest hour (hover to see other rain measurements)
** Current wind speed in m/s (hover to see current wind gust speed)